Time;durP1;ratioP1;P1;durP2;ratioP2;P2;SDS_P1;SDS_P2;PMS_P1;PMS_P2;Temp;Humidity;BMP_temperature;BMP_pressure;BME280_temperature;BME280_humidity;BME280_pressure;Samples;Min_cycle;Max_cycle;Signal;HPM_P1;HPM_P2
2023/03/05 00:01:56;;;;;;;;;;;;;;;;;;5079311;28;20361;-82
2023/03/05 00:04:22;;;;;;;;;;;;;;;;;;5076905;28;20013;-81
2023/03/05 00:06:48;;;;;;;;;;;;;;;;;;5082304;28;19948;-82
2023/03/05 00:09:14;;;;;;;;;;;;;;;;;;5087168;28;20416;-82
2023/03/05 00:11:40;;;;;;;;;;;;;;;;;;5078011;28;19924;-81
2023/03/05 00:14:06;;;;;;;;;;;;;;;;;;5079900;28;19958;-82
2023/03/05 00:16:32;;;;;;;;;;;;;;;;;;5079500;28;20331;-82
2023/03/05 00:18:58;;;;;;;;;;;;;;;;;;5081312;28;20365;-82
2023/03/05 00:21:24;;;;;;;;;;;;;;;;;;5082266;28;19959;-82
2023/03/05 00:23:50;;;;;;;;;;;;;;;;;;5061834;28;19924;-82
2023/03/05 00:26:16;;;;;;;;;;;;;;;;;;5079850;28;19913;-82
2023/03/05 00:28:43;;;;;;;;;;;;;;;;;;5080502;28;20361;-82
2023/03/05 00:31:09;;;;;;;;;;;;;;;;;;5085826;28;20010;-82
2023/03/05 00:33:35;;;;;;;;;;;;;;;;;;5067828;28;19916;-82
2023/03/05 00:36:01;;;;;;;;;;;;;;;;;;5081851;28;19968;-82
2023/03/05 00:38:27;;;;;;;;;;;;;;;;;;5086606;28;19916;-82
2023/03/05 00:40:53;;;;;;;;;;;;;;;;;;5080352;28;19912;-82
2023/03/05 00:43:19;;;;;;;;;;;;;;;;;;5084184;28;19923;-83
2023/03/05 00:45:45;;;;;;;;;;;;;;;;;;5087931;28;19961;-83
2023/03/05 00:48:11;;;;;;;;;;;;;;;;;;5067026;28;19912;-83
2023/03/05 00:50:37;;;;;;;;;;;;;;;;;;5088942;28;19920;-82
2023/03/05 00:53:03;;;;;;;;;;;;;;;;;;5087047;28;19923;-83
2023/03/05 00:55:29;;;;;;;;;;;;;;;;;;5085801;28;19919;-83
2023/03/05 00:57:55;;;;;;;;;;;;;;;;;;5081168;28;20340;-82
2023/03/05 01:00:21;;;;;;;;;;;;;;;;;;5085309;28;19912;-82
2023/03/05 01:02:47;;;;;;;;;;;;;;;;;;5087718;28;20003;-82
2023/03/05 01:05:13;;;;;;;;;;;;;;;;;;5071108;28;19912;-82
2023/03/05 01:07:39;;;;;;;;;;;;;;;;;;5081648;28;19916;-82
2023/03/05 01:10:05;;;;;;;;;;;;;;;;;;5087638;28;20368;-83
2023/03/05 01:12:31;;;;;;;;;;;;;;;;;;5082004;28;19958;-82
2023/03/05 01:14:57;;;;;;;;;;;;;;;;;;5063904;28;20280;-82
2023/03/05 01:17:23;;;;;;;;;;;;;;;;;;5083327;28;19920;-82
2023/03/05 01:19:49;;;;;;;;;;;;;;;;;;5077869;28;19916;-82
2023/03/05 01:22:15;;;;;;;;;;;;;;;;;;5087157;28;19989;-82
2023/03/05 01:24:41;;;;;;;;;;;;;;;;;;5087686;28;19912;-82
2023/03/05 01:27:07;;;;;;;;;;;;;;;;;;5087291;28;19985;-82
2023/03/05 01:29:33;;;;;;;;;;;;;;;;;;5083798;28;19962;-83
2023/03/05 01:32:01;;;;;;;;;;;;;;;;;;5078957;28;19912;-82
2023/03/05 01:34:28;;;;;;;;;;;;;;;;;;5088334;28;19912;-82
2023/03/05 01:36:54;;;;;;;;;;;;;;;;;;5081509;28;19987;-82
2023/03/05 01:39:20;;;;;;;;;;;;;;;;;;5087602;28;20006;-82
2023/03/05 01:41:46;;;;;;;;;;;;;;;;;;5084714;28;20326;-81
2023/03/05 01:44:12;;;;;;;;;;;;;;;;;;5086290;28;19965;-81
2023/03/05 01:46:39;;;;;;;;;;;;;;;;;;5087423;28;19959;-85
2023/03/05 01:49:04;;;;;;;;;;;;;;;;;;5081617;28;19912;-82
2023/03/05 01:51:30;;;;;;;;;;;;;;;;;;5085522;28;19945;-82
2023/03/05 01:53:57;;;;;;;;;;;;;;;;;;5063438;28;19912;-80
2023/03/05 01:56:23;;;;;;;;;;;;;;;;;;5062295;28;19920;-82
2023/03/05 01:58:49;;;;;;;;;;;;;;;;;;5042328;28;19921;-82
2023/03/05 02:01:15;;;;;;;;;;;;;;;;;;5064722;28;19916;-82
2023/03/05 02:03:41;;;;;;;;;;;;;;;;;;5059371;28;19920;-82
2023/03/05 02:06:07;;;;;;;;;;;;;;;;;;5043500;28;20374;-82
2023/03/05 02:08:33;;;;;;;;;;;;;;;;;;5045546;28;19958;-84
2023/03/05 02:11:00;;;;;;;;;;;;;;;;;;5067309;28;19967;-83
2023/03/05 02:13:27;;;;;;;;;;;;;;;;;;5064101;28;19936;-82
2023/03/05 02:15:53;;;;;;;;;;;;;;;;;;5064251;28;20289;-83
2023/03/05 02:18:19;;;;;;;;;;;;;;;;;;5048915;28;19912;-83
2023/03/05 02:20:45;;;;;;;;;;;;;;;;;;5061951;28;19959;-82
2023/03/05 02:23:11;;;;;;;;;;;;;;;;;;5060978;28;20404;-82
2023/03/05 02:25:37;;;;;;;;;;;;;;;;;;5064479;28;19994;-82
2023/03/05 02:28:03;;;;;;;;;;;;;;;;;;5063524;28;19928;-83
2023/03/05 02:30:30;;;;;;;;;;;;;;;;;;5063529;28;19925;-83
2023/03/05 02:32:56;;;;;;;;;;;;;;;;;;5062780;28;20277;-82
2023/03/05 02:35:22;;;;;;;;;;;;;;;;;;5042554;28;19969;-82
2023/03/05 02:37:48;;;;;;;;;;;;;;;;;;5040870;28;19924;-82
2023/03/05 02:40:14;;;;;;;;;;;;;;;;;;5041825;28;19912;-82
2023/03/05 02:42:40;;;;;;;;;;;;;;;;;;5044541;28;19921;-83
2023/03/05 02:45:07;;;;;;;;;;;;;;;;;;5062271;28;19994;-83
2023/03/05 02:47:33;;;;;;;;;;;;;;;;;;5065722;28;20462;-82
2023/03/05 02:49:59;;;;;;;;;;;;;;;;;;5062341;28;19927;-82
2023/03/05 02:52:25;;;;;;;;;;;;;;;;;;5055743;28;19917;-83
2023/03/05 02:54:51;;;;;;;;;;;;;;;;;;5046630;28;19920;-82
2023/03/05 02:57:17;;;;;;;;;;;;;;;;;;5065896;28;19917;-83
2023/03/05 02:59:43;;;;;;;;;;;;;;;;;;5044390;28;19978;-82
2023/03/05 03:02:09;;;;;;;;;;;;;;;;;;5058044;28;20002;-81
2023/03/05 03:04:35;;;;;;;;;;;;;;;;;;5060795;28;19916;-82
2023/03/05 03:07:01;;;;;;;;;;;;;;;;;;5064979;28;20290;-83
2023/03/05 03:09:27;;;;;;;;;;;;;;;;;;5060633;28;19919;-82
2023/03/05 03:11:53;;;;;;;;;;;;;;;;;;5062550;28;19928;-82
2023/03/05 03:14:19;;;;;;;;;;;;;;;;;;5060545;28;20026;-82
2023/03/05 03:16:45;;;;;;;;;;;;;;;;;;5065461;28;19913;-82
2023/03/05 03:19:11;;;;;;;;;;;;;;;;;;5065051;28;20405;-84
2023/03/05 03:21:37;;;;;;;;;;;;;;;;;;5063615;28;19913;-82
2023/03/05 03:24:03;;;;;;;;;;;;;;;;;;5060053;28;20343;-81
2023/03/05 03:26:30;;;;;;;;;;;;;;;;;;5064206;28;20254;-82
2023/03/05 03:28:56;;;;;;;;;;;;;;;;;;5063154;28;19923;-82
2023/03/05 03:31:22;;;;;;;;;;;;;;;;;;5046726;28;19920;-82
2023/03/05 03:33:48;;;;;;;;;;;;;;;;;;5066338;28;20370;-82
2023/03/05 03:36:14;;;;;;;;;;;;;;;;;;5061533;28;19920;-82
2023/03/05 03:38:40;;;;;;;;;;;;;;;;;;5063219;28;19913;-82
2023/03/05 03:41:06;;;;;;;;;;;;;;;;;;5057445;28;19913;-81
2023/03/05 03:43:33;;;;;;;;;;;;;;;;;;5060886;28;20028;-81
2023/03/05 03:45:59;;;;;;;;;;;;;;;;;;5066475;28;20369;-81
2023/03/05 03:48:25;;;;;;;;;;;;;;;;;;5065164;28;19922;-82
2023/03/05 03:50:50;;;;;;;;;;;;;;;;;;5061333;28;19917;-81
2023/03/05 03:53:16;;;;;;;;;;;;;;;;;;5045368;28;20007;-81
2023/03/05 03:55:45;;;;;;;;;;;;;;;;;;5061031;28;19913;-82
2023/03/05 03:58:11;;;;;;;;;;;;;;;;;;5080072;28;20144;-84
2023/03/05 04:00:37;;;;;;;;;;;;;;;;;;5083933;28;19939;-82
2023/03/05 04:03:03;;;;;;;;;;;;;;;;;;5081242;28;20241;-82
2023/03/05 04:05:29;;;;;;;;;;;;;;;;;;5083562;28;19919;-82
2023/03/05 04:07:57;;;;;;;;;;;;;;;;;;5076113;28;19919;-83
2023/03/05 04:10:23;;;;;;;;;;;;;;;;;;5079116;28;19996;-83
2023/03/05 04:12:49;;;;;;;;;;;;;;;;;;5077873;28;20403;-83
2023/03/05 04:15:15;;;;;;;;;;;;;;;;;;5087131;28;20296;-83
2023/03/05 04:17:41;;;;;;;;;;;;;;;;;;5082232;28;19923;-82
2023/03/05 04:20:09;;;;;;;;;;;;;;;;;;5085484;28;19970;-82
2023/03/05 04:22:35;;;;;;;;;;;;;;;;;;5083552;28;19928;-83
2023/03/05 04:25:05;;;;;;;;;;;;;;;;;;5083105;28;19919;-84
2023/03/05 04:27:31;;;;;;;;;;;;;;;;;;5081648;28;19930;-83
2023/03/05 04:29:57;;;;;;;;;;;;;;;;;;5080222;28;19959;-83
2023/03/05 04:32:28;;;;;;;;;;;;;;;;;;5070103;28;20040;-84
2023/03/05 04:34:54;;;;;;;;;;;;;;;;;;5066256;28;19973;-84
2023/03/05 04:37:20;;;;;;;;;;;;;;;;;;5080813;28;20370;-83
2023/03/05 04:39:46;;;;;;;;;;;;;;;;;;5074702;28;19916;-83
2023/03/05 04:42:12;;;;;;;;;;;;;;;;;;5085874;28;19957;-83
2023/03/05 04:44:38;;;;;;;;;;;;;;;;;;5082257;28;19970;-82
2023/03/05 04:47:04;;;;;;;;;;;;;;;;;;5083569;28;20320;-82
2023/03/05 04:49:30;;;;;;;;;;;;;;;;;;5080715;28;19912;-83
2023/03/05 04:51:56;;;;;;;;;;;;;;;;;;5086094;28;19916;-83
2023/03/05 04:54:22;;;;;;;;;;;;;;;;;;5050302;28;20389;-82
2023/03/05 04:56:48;;;;;;;;;;;;;;;;;;5079711;28;20292;-83
2023/03/05 04:59:14;;;;;;;;;;;;;;;;;;5076853;28;19919;-83
2023/03/05 05:01:40;;;;;;;;;;;;;;;;;;5078740;28;19918;-83
2023/03/05 05:04:06;;;;;;;;;;;;;;;;;;5064428;28;19919;-83
2023/03/05 05:06:32;;;;;;;;;;;;;;;;;;5080172;28;20302;-84
2023/03/05 05:08:58;;;;;;;;;;;;;;;;;;5080590;28;20390;-81
2023/03/05 05:11:24;;;;;;;;;;;;;;;;;;5078640;28;19974;-83
2023/03/05 05:13:50;;;;;;;;;;;;;;;;;;5065838;28;19978;-82
2023/03/05 05:16:16;;;;;;;;;;;;;;;;;;5064547;28;19912;-83
2023/03/05 05:18:42;;;;;;;;;;;;;;;;;;5087470;28;19913;-83
2023/03/05 05:21:08;;;;;;;;;;;;;;;;;;5088361;28;19916;-82
2023/03/05 05:23:34;;;;;;;;;;;;;;;;;;5085003;28;19967;-83
2023/03/05 05:26:00;;;;;;;;;;;;;;;;;;5082645;28;19913;-83
2023/03/05 05:28:26;;;;;;;;;;;;;;;;;;5078043;28;19912;-82
2023/03/05 05:30:52;;;;;;;;;;;;;;;;;;5082836;28;19977;-82
2023/03/05 05:33:18;;;;;;;;;;;;;;;;;;5081525;28;20384;-82
2023/03/05 05:35:44;;;;;;;;;;;;;;;;;;5083047;28;19919;-83
2023/03/05 05:38:10;;;;;;;;;;;;;;;;;;5085809;28;20373;-82
2023/03/05 05:40:36;;;;;;;;;;;;;;;;;;5084030;28;19918;-82
2023/03/05 05:43:02;;;;;;;;;;;;;;;;;;5078621;28;19915;-82
2023/03/05 05:45:28;;;;;;;;;;;;;;;;;;5085581;28;19984;-82
2023/03/05 05:47:54;;;;;;;;;;;;;;;;;;5078431;28;19926;-83
2023/03/05 05:50:20;;;;;;;;;;;;;;;;;;5084905;28;20403;-82
2023/03/05 05:52:46;;;;;;;;;;;;;;;;;;5080799;28;19924;-83
2023/03/05 05:55:12;;;;;;;;;;;;;;;;;;5080233;28;19920;-83
2023/03/05 05:57:38;;;;;;;;;;;;;;;;;;5082053;28;20010;-82
2023/03/05 06:00:06;;;;;;;;;;;;;;;;;;5086847;28;19958;-82
2023/03/05 06:02:37;;;;;;;;;;;;;;;;;;5081430;28;19939;-82
2023/03/05 06:05:03;;;;;;;;;;;;;;;;;;5086917;28;19955;-82
2023/03/05 06:07:30;;;;;;;;;;;;;;;;;;5085275;28;21524;-83
2023/03/05 06:09:56;;;;;;;;;;;;;;;;;;5077393;28;20016;-83
2023/03/05 06:12:22;;;;;;;;;;;;;;;;;;5084658;28;20010;-82
2023/03/05 06:14:48;;;;;;;;;;;;;;;;;;5086020;28;19912;-82
2023/03/05 06:17:14;;;;;;;;;;;;;;;;;;5084622;28;19913;-82
2023/03/05 06:19:40;;;;;;;;;;;;;;;;;;5085834;28;19916;-82
2023/03/05 06:22:06;;;;;;;;;;;;;;;;;;5085779;28;20401;-82
2023/03/05 06:24:32;;;;;;;;;;;;;;;;;;5085066;28;19924;-82
2023/03/05 06:26:58;;;;;;;;;;;;;;;;;;5085598;28;19913;-82
2023/03/05 06:29:24;;;;;;;;;;;;;;;;;;5050956;28;19948;-82
2023/03/05 06:31:50;;;;;;;;;;;;;;;;;;5080273;28;19916;-82
2023/03/05 06:34:16;;;;;;;;;;;;;;;;;;5083197;28;19920;-82
2023/03/05 06:36:43;;;;;;;;;;;;;;;;;;5085688;28;19916;-83
2023/03/05 06:39:09;;;;;;;;;;;;;;;;;;5081712;28;19919;-83
2023/03/05 06:41:35;;;;;;;;;;;;;;;;;;5081037;28;19916;-83
2023/03/05 06:44:04;;;;;;;;;;;;;;;;;;5081981;28;20404;-82
2023/03/05 06:46:30;;;;;;;;;;;;;;;;;;5082188;28;19916;-81
2023/03/05 06:48:56;;;;;;;;;;;;;;;;;;5083357;28;20342;-81
2023/03/05 06:51:22;;;;;;;;;;;;;;;;;;5063093;28;19920;-82
2023/03/05 06:53:48;;;;;;;;;;;;;;;;;;5079922;28;20475;-82
2023/03/05 06:56:15;;;;;;;;;;;;;;;;;;5083646;28;19998;-81
2023/03/05 06:58:41;;;;;;;;;;;;;;;;;;5057767;28;20364;-83
2023/03/05 07:01:07;;;;;;;;;;;;;;;;;;5044440;28;20403;-82
2023/03/05 07:03:33;;;;;;;;;;;;;;;;;;5064721;28;19916;-82
2023/03/05 07:05:59;;;;;;;;;;;;;;;;;;5063655;28;19913;-83
2023/03/05 07:08:25;;;;;;;;;;;;;;;;;;5059990;28;20301;-82
2023/03/05 07:10:51;;;;;;;;;;;;;;;;;;5060065;28;19925;-83
2023/03/05 07:13:17;;;;;;;;;;;;;;;;;;5071165;28;19918;-83
2023/03/05 07:15:43;;;;;;;;;;;;;;;;;;5042060;28;20018;-81
2023/03/05 07:18:09;;;;;;;;;;;;;;;;;;5038527;28;19916;-81
2023/03/05 07:20:37;;;;;;;;;;;;;;;;;;5065096;28;19912;-82
2023/03/05 07:23:03;;;;;;;;;;;;;;;;;;5059286;28;19948;-82
2023/03/05 07:25:29;;;;;;;;;;;;;;;;;;5055582;28;19912;-82
2023/03/05 07:27:55;;;;;;;;;;;;;;;;;;5060701;28;19966;-82
2023/03/05 07:30:21;;;;;;;;;;;;;;;;;;5062343;28;20481;-81
2023/03/05 07:32:47;;;;;;;;;;;;;;;;;;5055231;28;19916;-81
2023/03/05 07:35:13;;;;;;;;;;;;;;;;;;5042066;28;20435;-81
2023/03/05 07:37:39;;;;;;;;;;;;;;;;;;5064747;28;19938;-83
2023/03/05 07:40:05;;;;;;;;;;;;;;;;;;5068648;28;19925;-83
2023/03/05 07:42:31;;;;;;;;;;;;;;;;;;5071487;28;19916;-83
2023/03/05 07:45:08;;;;;;;;;;;;;;;;;;5045090;28;19944;-83
2023/03/05 07:47:34;;;;;;;;;;;;;;;;;;5053887;28;19917;-81
2023/03/05 07:50:00;;;;;;;;;;;;;;;;;;5077506;28;20019;-81
2023/03/05 07:52:26;;;;;;;;;;;;;;;;;;5076259;28;19912;-81
2023/03/05 07:54:52;;;;;;;;;;;;;;;;;;5077986;28;19917;-81
2023/03/05 07:57:18;;;;;;;;;;;;;;;;;;5085007;28;19916;-81
2023/03/05 07:59:44;;;;;;;;;;;;;;;;;;5092057;28;19941;-82
2023/03/05 08:02:10;;;;;;;;;;;;;;;;;;5090728;28;19973;-81
2023/03/05 08:04:37;;;;;;;;;;;;;;;;;;5086274;28;19986;-81
2023/03/05 08:07:03;;;;;;;;;;;;;;;;;;5087036;28;19912;-82
2023/03/05 08:09:29;;;;;;;;;;;;;;;;;;5089656;28;19912;-81
2023/03/05 08:11:55;;;;;;;;;;;;;;;;;;5087934;28;19920;-81
2023/03/05 08:14:21;;;;;;;;;;;;;;;;;;5085723;28;19920;-82
2023/03/05 08:16:50;;;;;;;;;;;;;;;;;;5086990;28;20391;-81
2023/03/05 08:19:16;;;;;;;;;;;;;;;;;;5089389;28;19916;-80
2023/03/05 08:21:42;;;;;;;;;;;;;;;;;;5089297;28;19912;-80
2023/03/05 08:24:08;;;;;;;;;;;;;;;;;;5086377;28;19958;-80
2023/03/05 08:26:35;;;;;;;;;;;;;;;;;;5088749;28;19912;-81
2023/03/05 08:29:02;;;;;;;;;;;;;;;;;;5089027;28;19923;-80
2023/03/05 08:31:29;;;;;;;;;;;;;;;;;;5083067;28;19998;-81
2023/03/05 08:33:55;;;;;;;;;;;;;;;;;;5082385;28;19916;-81
2023/03/05 08:36:21;;;;;;;;;;;;;;;;;;5077848;28;19913;-79
2023/03/05 08:38:47;;;;;;;;;;;;;;;;;;5080935;28;19918;-81
2023/03/05 08:41:13;;;;;;;;;;;;;;;;;;5088595;28;20234;-82
2023/03/05 08:43:39;;;;;;;;;;;;;;;;;;5068608;28;19922;-82
2023/03/05 08:46:05;;;;;;;;;;;;;;;;;;5083721;28;19961;-80
2023/03/05 08:48:31;;;;;;;;;;;;;;;;;;5066521;28;20373;-81
2023/03/05 08:50:57;;;;;;;;;;;;;;;;;;5087419;28;19923;-82
2023/03/05 08:53:23;;;;;;;;;;;;;;;;;;5090613;28;19989;-82
2023/03/05 08:55:49;;;;;;;;;;;;;;;;;;5091923;28;19913;-81
2023/03/05 08:58:15;;;;;;;;;;;;;;;;;;5053396;28;19985;-81
2023/03/05 09:00:41;;;;;;;;;;;;;;;;;;5071860;28;19942;-80
2023/03/05 09:03:07;;;;;;;;;;;;;;;;;;5068460;28;19920;-81
2023/03/05 09:05:33;;;;;;;;;;;;;;;;;;5069542;28;19920;-81
2023/03/05 09:07:59;;;;;;;;;;;;;;;;;;5072410;28;19912;-80
2023/03/05 09:10:25;;;;;;;;;;;;;;;;;;5065274;28;19943;-82
2023/03/05 09:12:51;;;;;;;;;;;;;;;;;;5073270;28;19969;-81
2023/03/05 09:15:17;;;;;;;;;;;;;;;;;;5065754;28;19916;-81
2023/03/05 09:17:43;;;;;;;;;;;;;;;;;;5069903;28;20409;-82
2023/03/05 09:20:09;;;;;;;;;;;;;;;;;;5068666;28;20015;-81
2023/03/05 09:22:35;;;;;;;;;;;;;;;;;;5071098;28;19916;-82
2023/03/05 09:25:01;;;;;;;;;;;;;;;;;;5049781;28;20381;-81
2023/03/05 09:27:27;;;;;;;;;;;;;;;;;;5069945;28;20337;-81
2023/03/05 09:29:53;;;;;;;;;;;;;;;;;;5063703;28;20263;-81
2023/03/05 09:32:19;;;;;;;;;;;;;;;;;;5066155;28;19912;-81
2023/03/05 09:34:45;;;;;;;;;;;;;;;;;;5068156;28;19912;-82
2023/03/05 09:37:11;;;;;;;;;;;;;;;;;;5070370;28;20440;-80
2023/03/05 09:39:37;;;;;;;;;;;;;;;;;;5070332;28;19919;-81
2023/03/05 09:42:03;;;;;;;;;;;;;;;;;;5066033;28;20252;-82
2023/03/05 09:44:29;;;;;;;;;;;;;;;;;;5064215;28;20007;-81
2023/03/05 09:46:56;;;;;;;;;;;;;;;;;;5067681;28;19921;-80
2023/03/05 09:49:23;;;;;;;;;;;;;;;;;;5063738;28;19916;-80
2023/03/05 09:51:48;;;;;;;;;;;;;;;;;;5069536;28;19969;-79
2023/03/05 09:54:14;;;;;;;;;;;;;;;;;;5068888;28;19916;-81
2023/03/05 09:56:40;;;;;;;;;;;;;;;;;;5069250;28;19912;-84
2023/03/05 09:59:39;;;;;;;;;;;;;;;;;;5099843;27;19948;-83
2023/03/05 10:02:05;;;;;;;;;;;;;;;;;;5093456;28;19912;-83
2023/03/05 10:04:31;;;;;;;;;;;;;;;;;;5094309;28;19960;-83
2023/03/05 10:06:57;;;;;;;;;;;;;;;;;;5069440;28;19909;-83
2023/03/05 10:09:23;;;;;;;;;;;;;;;;;;5098910;28;19916;-83
2023/03/05 10:11:49;;;;;;;;;;;;;;;;;;5064659;28;19919;-84
2023/03/05 10:14:15;;;;;;;;;;;;;;;;;;5078983;28;19999;-82
2023/03/05 10:16:41;;;;;;;;;;;;;;;;;;5069758;28;20329;-81
2023/03/05 10:19:07;;;;;;;;;;;;;;;;;;5073059;28;19959;-83
2023/03/05 10:21:33;;;;;;;;;;;;;;;;;;5079975;28;19912;-83
2023/03/05 10:23:59;;;;;;;;;;;;;;;;;;5089220;28;20431;-82
2023/03/05 10:26:25;;;;;;;;;;;;;;;;;;5053285;28;19920;-82
2023/03/05 10:28:51;;;;;;;;;;;;;;;;;;5086989;28;19912;-82
2023/03/05 10:31:17;;;;;;;;;;;;;;;;;;5073803;28;19912;-82
2023/03/05 10:33:43;;;;;;;;;;;;;;;;;;5069630;28;19924;-82
2023/03/05 10:36:10;;;;;;;;;;;;;;;;;;5093768;28;19919;-81
2023/03/05 10:38:36;;;;;;;;;;;;;;;;;;5062153;28;20009;-82
2023/03/05 10:42:06;;;;;;;12.00;2.60;;;;;;;8.47;100.00;101641.97;5068671;28;20377;-80
2023/03/05 10:44:42;;;;;;;4.70;1.77;;;;;;;8.50;100.00;101635.69;5034234;28;20205;-81
2023/03/05 10:47:23;;;;;;;9.38;1.77;;;;;;;8.48;100.00;101638.38;5051851;28;20079;-81
2023/03/05 10:49:54;;;;;;;4.40;1.63;;;;;;;8.57;100.00;101636.31;5038540;28;20124;-81
2023/03/05 10:52:37;;;;;;;4.80;1.55;;;;;;;8.59;100.00;101629.16;5035090;28;20124;-81
2023/03/05 10:55:14;;;;;;;3.38;1.48;;;;;;;8.37;100.00;101631.63;5032902;28;20111;-80
2023/03/05 10:57:41;;;;;;;5.88;2.22;;;;;;;7.86;100.00;101618.19;5040856;28;20033;-85
2023/03/05 11:00:16;;;;;;;6.20;1.55;;;;;;;7.97;100.00;101623.19;5047812;28;20033;-81
2023/03/05 11:02:59;;;;;;;3.17;2.10;;;;;;;8.09;100.00;101614.81;5032105;28;20487;-81
2023/03/05 11:05:47;;;;;;;3.45;1.50;;;;;;;8.06;100.00;101608.72;5030691;28;20525;-80
2023/03/05 11:08:23;;;;;;;4.40;1.50;;;;;;;7.94;100.00;101604.69;5021845;28;20087;-82
2023/03/05 11:11:03;;;;;;;4.68;1.70;;;;;;;7.78;100.00;101603.44;5031042;28;20055;-81
2023/03/05 11:13:29;;;;;;;3.40;1.90;;;;;;;7.85;100.00;101594.34;5038806;28;21119;-81
2023/03/05 11:16:13;;;;;;;7.85;1.80;;;;;;;7.82;100.00;101597.09;5040059;28;20075;-80
2023/03/05 11:18:41;;;;;;;6.07;1.90;;;;;;;8.18;100.00;101586.16;5035581;28;20034;-81
2023/03/05 11:21:18;;;;;;;6.88;2.15;;;;;;;8.09;100.00;101582.91;5042455;28;20037;-81
2023/03/05 11:24:04;;;;;;;4.50;2.05;;;;;;;8.23;100.00;101578.91;5040391;28;20037;-83
2023/03/05 11:26:34;;;;;;;10.27;2.85;;;;;;;8.22;100.00;101571.84;5039330;28;20028;-81
2023/03/05 11:29:03;;;;;;;9.30;2.97;;;;;;;8.33;100.00;101575.00;5032489;28;20025;-82
2023/03/05 11:31:31;;;;;;;7.20;2.80;;;;;;;8.34;100.00;101563.44;5045102;28;20053;-83
2023/03/05 11:34:16;;;;;;;9.75;3.28;;;;;;;8.49;100.00;101568.25;5044255;28;20025;-82
2023/03/05 11:36:54;;;;;;;9.10;3.63;;;;;;;8.51;100.00;101566.41;5021699;28;20041;-82
2023/03/05 11:39:22;;;;;;;8.95;3.25;;;;;;;8.51;100.00;101563.75;5055609;28;20065;-82
2023/03/05 11:41:58;;;;;;;7.10;3.55;;;;;;;8.28;100.00;101564.53;5026027;28;20515;-82
2023/03/05 11:44:29;;;;;;;8.15;3.13;;;;;;;8.19;100.00;101558.66;5038886;28;20192;-81
2023/03/05 11:47:01;;;;;;;6.72;3.53;;;;;;;8.41;100.00;101551.69;5050001;28;20105;-81
2023/03/05 11:49:29;;;;;;;8.98;3.25;;;;;;;8.55;100.00;101553.88;5042958;28;20026;-81
2023/03/05 11:52:09;;;;;;;6.82;2.42;;;;;;;8.95;100.00;101549.78;5032667;28;20468;-81
2023/03/05 11:55:03;;;;;;;7.65;2.00;;;;;;;9.36;100.00;101551.78;5023186;28;20033;-81
2023/03/05 11:57:45;;;;;;;5.63;2.13;;;;;;;9.58;100.00;101552.69;5020440;28;20523;-81
2023/03/05 12:00:17;;;;;;;6.15;2.40;;;;;;;9.48;100.00;101552.16;5017725;28;20045;-81
2023/03/05 12:02:44;;;;;;;5.25;3.25;;;;;;;9.27;100.00;101543.22;5027587;28;20038;-82
2023/03/05 12:05:14;;;;;;;6.32;2.60;;;;;;;8.60;100.00;101527.09;5026241;28;20089;-82
2023/03/05 12:07:43;;;;;;;4.78;2.70;;;;;;;8.30;100.00;101516.59;5023496;28;20394;-82
2023/03/05 12:10:15;;;;;;;6.30;3.03;;;;;;;8.24;100.00;101523.00;5014523;28;20038;-81
2023/03/05 12:13:04;;;;;;;9.73;3.03;;;;;;;7.96;100.00;101523.09;5035106;28;20046;-81
2023/03/05 12:15:55;;;;;;;6.95;2.90;;;;;;;7.80;100.00;101511.22;5013523;28;20022;-81
2023/03/05 12:18:55;;;;;;;9.07;2.28;;;;;;;7.60;100.00;101502.09;5016442;28;20061;-81
2023/03/05 12:21:41;;;;;;;4.88;2.92;;;;;;;7.51;100.00;101505.03;4991841;28;20061;-81
2023/03/05 12:24:34;;;;;;;7.78;2.55;;;;;;;7.45;100.00;101495.47;5027323;28;20478;-82
2023/03/05 12:27:03;;;;;;;8.40;2.55;;;;;;;7.35;100.00;101489.59;5025037;28;20391;-81
2023/03/05 12:29:44;;;;;;;5.72;2.30;;;;;;;7.50;100.00;101474.09;5032786;28;20029;-82
2023/03/05 12:32:24;;;;;;;7.97;2.55;;;;;;;7.70;100.00;101478.75;5034045;28;20455;-82
2023/03/05 12:34:57;;;;;;;6.82;3.30;;;;;;;7.64;100.00;101474.53;5023128;28;20050;-82
2023/03/05 12:37:23;;;;;;;8.65;2.55;;;;;;;7.60;100.00;101472.84;5013094;28;20053;-82
2023/03/05 12:39:59;;;;;;;7.90;2.72;;;;;;;7.49;100.00;101467.03;5022385;28;20143;-80
2023/03/05 12:42:29;;;;;;;6.15;2.00;;;;;;;7.63;100.00;101469.25;5026739;28;20437;-81
2023/03/05 12:45:22;;;;;;;6.47;2.40;;;;;;;7.89;100.00;101457.75;5030806;28;20057;-82
2023/03/05 12:48:11;;;;;;;6.07;2.17;;;;;;;8.18;100.00;101453.19;5045652;28;20079;-81
2023/03/05 12:50:38;;;;;;;6.72;2.70;;;;;;;8.27;100.00;101447.53;4992662;28;20041;-81
2023/03/05 12:53:15;;;;;;;5.97;1.95;;;;;;;8.25;100.00;101444.06;5027284;28;20029;-80
2023/03/05 12:55:44;;;;;;;6.43;2.80;;;;;;;8.20;100.00;101446.00;5023127;28;20565;-82
2023/03/05 12:58:16;;;;;;;15.70;2.60;;;;;;;8.09;100.00;101439.31;5027219;28;20033;-82
2023/03/05 13:00:48;;;;;;;8.68;2.67;;;;;;;8.40;100.00;101435.53;5034562;28;20129;-82
2023/03/05 13:03:26;;;;;;;6.32;2.20;;;;;;;8.87;100.00;101432.91;5020242;28;20150;-80
2023/03/05 13:05:57;;;;;;;5.35;1.67;;;;;;;9.20;100.00;101424.50;5032758;28;20219;-80
2023/03/05 13:08:25;;;;;;;4.85;1.60;;;;;;;9.40;100.00;101425.50;5029530;28;20040;-85
2023/03/05 13:10:58;;;;;;;7.85;2.10;;;;;;;9.43;100.00;101422.69;5027003;28;20060;-86
2023/03/05 13:13:26;;;;;;;5.55;1.95;;;;;;;9.55;100.00;101419.53;5043907;28;20033;-87
2023/03/05 13:15:53;;;;;;;9.82;2.33;;;;;;;9.62;100.00;101415.66;5025407;28;20030;-82
2023/03/05 13:18:22;;;;;;;4.97;2.40;;;;;;;9.40;100.00;101414.84;5004613;28;20481;-80
2023/03/05 13:20:58;;;;;;;6.18;2.60;;;;;;;8.58;100.00;101407.41;5034724;28;20137;-80
2023/03/05 13:23:26;;;;;;;8.25;2.50;;;;;;;8.50;100.00;101396.19;5006138;28;20496;-81
2023/03/05 13:26:14;;;;;;;6.75;2.47;;;;;;;8.28;100.00;101396.09;5023123;28;20192;-80
2023/03/05 13:28:41;;;;;;;6.53;2.65;;;;;;;8.25;100.00;101386.41;5018752;28;20476;-80
2023/03/05 13:31:21;;;;;;;6.97;2.80;;;;;;;7.91;100.00;101386.78;5035574;28;20274;-80
2023/03/05 13:34:18;;;;;;;6.13;3.55;;;;;;;7.47;100.00;101373.22;5017339;28;20041;-81
2023/03/05 13:36:47;;;;;;;5.50;3.00;;;;;;;7.46;100.00;101377.69;5022008;28;20129;-79
2023/03/05 13:39:28;;;;;;;11.88;3.65;;;;;;;7.51;100.00;101385.50;5035254;28;20413;-80
2023/03/05 13:42:00;;;;;;;10.90;3.53;;;;;;;7.38;100.00;101362.00;5037762;28;20085;-83
2023/03/05 13:44:28;;;;;;;7.47;3.13;;;;;;;7.34;100.00;101363.03;5015498;28;20424;-81
2023/03/05 13:47:07;;;;;;;9.52;3.50;;;;;;;7.24;100.00;101356.28;5037314;28;20039;-80
2023/03/05 13:49:33;;;;;;;9.10;4.00;;;;;;;7.35;100.00;101355.94;5019707;28;20399;-79
2023/03/05 13:52:00;;;;;;;10.27;4.38;;;;;;;7.43;100.00;101353.00;5024251;28;20036;-80
2023/03/05 13:54:27;;;;;;;10.57;3.60;;;;;;;7.38;100.00;101351.38;5037153;28;20414;-80
2023/03/05 13:56:59;;;;;;;8.32;3.75;;;;;;;7.27;100.00;101352.66;5031539;28;20033;-80
2023/03/05 13:59:28;;;;;;;7.80;3.13;;;;;;;7.20;100.00;101352.00;5017949;28;20471;-80
2023/03/05 14:02:00;;;;;;;8.00;3.00;;;;;;;7.32;100.00;101350.72;5005445;28;20041;-80
2023/03/05 14:04:36;;;;;;;5.78;2.80;;;;;;;7.30;100.00;101347.25;5006470;28;20037;-79
2023/03/05 14:07:39;;;;;;;7.22;2.80;;;;;;;7.44;100.00;101344.13;5015652;28;20516;-80
2023/03/05 14:10:35;;;;;;;3.85;2.35;;;;;;;7.57;100.00;101342.78;5033264;28;20427;-81
2023/03/05 14:13:05;;;;;;;9.98;2.90;;;;;;;7.53;100.00;101335.81;5018126;28;20463;-81
2023/03/05 14:15:33;;;;;;;10.45;2.80;;;;;;;7.41;100.00;101330.94;5019237;28;20033;-80
2023/03/05 14:18:12;;;;;;;5.90;3.10;;;;;;;7.36;100.00;101333.75;5026484;28;20069;-80
2023/03/05 14:20:39;;;;;;;7.35;2.92;;;;;;;7.50;100.00;101328.84;5023741;28;20467;-81
2023/03/05 14:23:34;;;;;;;11.18;3.15;;;;;;;7.60;100.00;101326.72;5017315;28;20045;-82
2023/03/05 14:26:26;;;;;;;7.90;3.00;;;;;;;7.69;100.00;101317.56;5015113;28;20095;-85
2023/03/05 14:28:54;;;;;;;8.10;3.08;;;;;;;7.76;100.00;101309.31;5037766;28;20384;-82
2023/03/05 14:31:21;;;;;;;6.57;2.70;;;;;;;7.86;100.00;101314.28;5020767;28;20038;-82
2023/03/05 14:33:48;;;;;;;6.60;2.83;;;;;;;7.94;100.00;101309.59;5019484;28;20037;-82
2023/03/05 14:36:22;;;;;;;3.67;1.80;;;;;;;7.54;100.00;101303.03;5010542;28;20025;-81
2023/03/05 14:38:49;;;;;;;6.60;2.60;;;;;;;7.82;100.00;101300.25;5016313;28;20061;-82
2023/03/05 14:41:33;;;;;;;8.43;1.92;;;;;;;8.19;100.00;101300.69;4997099;28;20076;-81
2023/03/05 14:43:59;;;;;;;5.05;1.67;;;;;;;8.71;100.00;101293.34;5024351;28;20087;-81
2023/03/05 14:46:26;;;;;;;7.10;1.92;;;;;;;9.04;100.00;101282.22;5031534;28;20052;-82
2023/03/05 14:48:53;;;;;;;4.57;1.30;;;;;;;9.06;100.00;101283.91;5019370;28;20317;-80
2023/03/05 14:51:20;;;;;;;4.47;1.60;;;;;;;9.05;100.00;101281.28;5016318;28;20034;-82
2023/03/05 14:53:49;;;;;;;2.72;1.08;;;;;;;9.11;100.00;101281.03;5035534;28;20525;-81
2023/03/05 14:56:24;;;;;;;3.55;1.30;;;;;;;9.60;100.00;101273.59;5019623;28;20090;-83
2023/03/05 14:58:51;;;;;;;2.08;1.02;;;;;;;9.82;100.00;101262.84;5017344;28;20063;-82